| time (UTC) | temp C | wind direction | speed KPH | gust KPH | rain 1hr cm | rain 24hr cm | rain mn cm | humidity % | barometer mb |
| 20260503184501 | 11 | 31 | 1.6 | 17.7 | 0.00 | 0.00 | 0.00 | 67 | 1010.6 |
| 20260503183035 | 11 | 5 | 1.6 | 25.7 | 0.00 | 0.00 | 0.00 | 65 | 1010.7 |
| 20260503181514 | 12 | 339 | 0.0 | 24.1 | 0.00 | 0.00 | 0.00 | 64 | 1010.7 |
| 20260503180046 | 12 | 69 | 0.0 | 12.9 | 0.00 | 0.00 | 0.00 | 64 | 1010.7 |
| 20260503174517 | 13 | 10 | 0.0 | 40.2 | 0.00 | 0.00 | 0.00 | 59 | 1011.0 |
| 20260503173056 | 14 | 179 | 0.0 | 16.1 | 0.00 | 0.00 | 0.00 | 53 | 1011.0 |
| 20260503171530 | 15 | 89 | 0.0 | 17.7 | 0.00 | 0.00 | 0.00 | 51 | 1011.2 |
| 20260503081534 | 5 | 49 | 0.0 | 0.0 | 0.00 | 0.00 | 0.00 | 67 | 1013.1 |
| 20260503071604 | 5 | 21 | 0.0 | 0.0 | 0.00 | 0.00 | 0.00 | 68 | 1013.3 |
| 20260503054518 | 5 | 24 | 0.0 | 0.0 | 0.00 | 0.00 | 0.00 | 69 | 1014.2 |
| 20260503053052 | 5 | 12 | 0.0 | 0.0 | 0.00 | 0.00 | 0.00 | 68 | 1014.3 |
| 20260503051526 | 5 | 19 | 0.0 | 0.0 | 0.00 | 0.00 | 0.00 | 69 | 1014.5 |
| 20260503050101 | 4 | 32 | 0.0 | 0.0 | 0.00 | 0.00 | 0.00 | 70 | 1014.6 |
| 20260503044533 | 4 | 40 | 0.0 | 0.0 | 0.00 | 0.00 | 0.00 | 73 | 1014.7 |
| 20260503043002 | 3 | 26 | 0.0 | 0.0 | 0.00 | 0.00 | 0.00 | 76 | 1014.7 |
| 20260503041541 | 3 | 26 | 0.0 | 0.0 | 0.00 | 0.00 | 0.00 | 75 | 1014.8 |
| 20260503040013 | 3 | 26 | 0.0 | 0.0 | 0.00 | 0.00 | 0.00 | 75 | 1014.9 |
| 20260503034550 | 3 | 26 | 0.0 | 0.0 | 0.00 | 0.00 | 0.00 | 76 | 1015.0 |
| 20260503033045 | 3 | 26 | 0.0 | 0.0 | 0.00 | 0.00 | 0.00 | 76 | 1015.0 |
| 20260503031606 | 3 | 26 | 0.0 | 0.0 | 0.00 | 0.00 | 0.00 | 74 | 1015.2 |
| 20260503030030 | 4 | 26 | 0.0 | 0.0 | 0.00 | 0.00 | 0.00 | 74 | 1015.2 |
| 20260503024506 | 4 | 26 | 0.0 | 0.0 | 0.00 | 0.00 | 0.00 | 73 | 1015.4 |
| 20260503023055 | 5 | 26 | 0.0 | 0.0 | 0.00 | 0.00 | 0.00 | 72 | 1015.4 |
| 20260503021515 | 5 | 26 | 0.0 | 0.0 | 0.00 | 0.00 | 0.00 | 69 | 1015.3 |
| 20260503020051 | 5 | 26 | 0.0 | 0.0 | 0.00 | 0.00 | 0.00 | 67 | 1015.4 |
| 20260503014513 | 6 | 26 | 0.0 | 0.0 | 0.00 | 0.00 | 0.00 | 64 | 1015.3 |
| 20260503013058 | 6 | 26 | 0.0 | 0.0 | 0.00 | 0.00 | 0.00 | 59 | 1015.3 |
| 20260503011524 | 7 | 26 | 0.0 | 0.0 | 0.00 | 0.00 | 0.00 | 55 | 1015.3 |
| 20260503010106 | 8 | 26 | 0.0 | 0.0 | 0.00 | 0.00 | 0.00 | 50 | 1015.3 |
| 20260503004532 | 10 | 26 | 0.0 | 0.0 | 0.00 | 0.00 | 0.00 | 46 | 1015.4 |
| 20260503003006 | 11 | 26 | 0.0 | 0.0 | 0.00 | 0.00 | 0.00 | 43 | 1015.4 |
| 20260503001542 | 12 | 26 | 0.0 | 0.0 | 0.00 | 0.00 | 0.00 | 40 | 1015.5 |
| 20260503000018 | 12 | 26 | 0.0 | 0.0 | 0.00 | 0.00 | 0.00 | 38 | 1015.6 |
| 20260502234552 | 12 | 26 | 0.0 | 0.0 | 0.00 | 0.00 | 0.00 | 35 | 1015.7 |
| 20260502233024 | 11 | 198 | 0.0 | 0.0 | 0.00 | 0.00 | 0.00 | 35 | 1015.8 |
| 20260502231603 | 12 | 201 | 0.0 | 0.0 | 0.00 | 0.00 | 0.00 | 34 | 1015.9 |
| 20260502230029 | 12 | 25 | 0.0 | 0.0 | 0.00 | 0.00 | 0.00 | 35 | 1016.0 |
| 20260502224503 | 12 | 196 | 0.0 | 0.0 | 0.00 | 0.00 | 0.00 | 35 | 1016.1 |
| 20260502223038 | 12 | 209 | 0.0 | 0.0 | 0.00 | 0.00 | 0.00 | 33 | 1016.2 |
| 20260502221510 | 12 | 190 | 0.0 | 3.2 | 0.00 | 0.00 | 0.00 | 32 | 1016.3 |
| 20260502220044 | 12 | 13 | 0.0 | 1.6 | 0.00 | 0.00 | 0.00 | 36 | 1016.4 |
| 20260502214516 | 12 | 199 | 0.0 | 3.2 | 0.00 | 0.00 | 0.00 | 36 | 1016.3 |
| 20260502213049 | 11 | 196 | 0.0 | 0.0 | 0.00 | 0.00 | 0.00 | 42 | 1016.5 |
| 20260502211520 | 11 | 202 | 0.0 | 1.6 | 0.00 | 0.00 | 0.00 | 41 | 1016.5 |
| 20260502210050 | 11 | 86 | 0.0 | 3.2 | 0.00 | 0.00 | 0.00 | 42 | 1016.7 |
| 20260502204526 | 11 | 175 | 0.0 | 3.2 | 0.00 | 0.00 | 0.00 | 42 | 1016.8 |
| 20260502203056 | 10 | 107 | 0.0 | 1.6 | 0.00 | 0.00 | 0.00 | 42 | 1016.9 |
| 20260502201528 | 10 | 235 | 0.0 | 3.2 | 0.00 | 0.00 | 0.00 | 44 | 1017.1 |
| 20260502200003 | 10 | 185 | 0.0 | 1.6 | 0.00 | 0.00 | 0.00 | 45 | 1017.4 |
| 20260502194537 | 10 | 195 | 0.0 | 3.2 | 0.00 | 0.00 | 0.00 | 45 | 1017.6 |
| 20260502193008 | 10 | 194 | 0.0 | 3.2 | 0.00 | 0.00 | 0.00 | 45 | 1017.8 |
| 20260502191545 | 10 | 202 | 0.0 | 1.6 | 0.00 | 0.00 | 0.00 | 51 | 1018.0 |
| 20260502190011 | 8 | 29 | 0.0 | 3.2 | 0.00 | 0.00 | 0.00 | 48 | 1018.2 |